createdAt,value
2022-09-28T00:01:41.077Z,98803.41
2022-09-28T00:04:12.375Z,98800.75
2022-09-28T00:06:40.572Z,98811.28
2022-09-28T00:09:08.555Z,98809.50
2022-09-28T00:11:37.681Z,98803.34
2022-09-28T00:14:07.496Z,98812.16
2022-09-28T00:16:40.032Z,98804.22
2022-09-28T00:19:08.568Z,98811.25
2022-09-28T00:21:38.984Z,98811.25
2022-09-28T00:24:25.231Z,98812.09
2022-09-28T00:26:58.881Z,98816.53
2022-09-28T00:29:32.071Z,98820.00
2022-09-28T00:32:07.629Z,98821.75
2022-09-28T00:34:40.723Z,98818.25
2022-09-28T00:37:09.755Z,98829.66
2022-09-28T00:39:41.301Z,98821.75
2022-09-28T00:42:19.482Z,98823.50
2022-09-28T00:44:52.309Z,98822.59
2022-09-28T00:47:44.381Z,98819.09
2022-09-28T00:50:23.165Z,98813.88
2022-09-28T00:52:55.526Z,98814.72
2022-09-28T00:55:34.896Z,98808.59
2022-09-28T00:58:06.204Z,98806.81
2022-09-28T01:00:34.094Z,98795.41
2022-09-28T01:03:02.836Z,98805.09
2022-09-28T01:05:31.138Z,98800.69
2022-09-28T01:08:03.301Z,98805.97
2022-09-28T01:10:32.401Z,98801.53
2022-09-28T01:13:00.438Z,98797.16
2022-09-28T01:15:30.504Z,98801.56
2022-09-28T01:18:14.063Z,98802.41
2022-09-28T01:20:45.742Z,98794.53
2022-09-28T01:23:53.372Z,98786.63
2022-09-28T01:26:39.363Z,98791.91
2022-09-28T01:29:34.970Z,98791.94
2022-09-28T01:32:49.888Z,98801.63
2022-09-28T01:35:37.482Z,98804.28
2022-09-28T01:38:19.350Z,98799.91
2022-09-28T01:40:48.948Z,98801.59
2022-09-28T01:43:28.472Z,98796.34
2022-09-28T01:46:16.723Z,98799.81
2022-09-28T01:49:09.803Z,98791.03
2022-09-28T01:51:53.270Z,98798.94
2022-09-28T01:54:32.674Z,98798.06
2022-09-28T01:57:27.139Z,98788.31
2022-09-28T02:00:23.965Z,98788.25
2022-09-28T02:03:10.037Z,98774.22
2022-09-28T02:06:09.544Z,98766.28
2022-09-28T02:08:46.023Z,98754.84
2022-09-28T02:11:17.347Z,98742.50
2022-09-28T02:13:59.937Z,98731.06
2022-09-28T02:16:43.795Z,98729.31
2022-09-28T02:19:32.672Z,98722.31
2022-09-28T02:22:28.930Z,98717.88
2022-09-28T02:25:05.333Z,98690.66
2022-09-28T02:27:56.367Z,98690.66
2022-09-28T02:30:24.586Z,98686.25
2022-09-28T02:32:59.458Z,98699.44
2022-09-28T02:35:27.454Z,98688.94
2022-09-28T02:37:56.666Z,98680.97
2022-09-28T02:40:33.955Z,98686.22
2022-09-28T02:43:24.804Z,98680.91
2022-09-28T02:46:20.270Z,98680.00
2022-09-28T02:49:29.070Z,98673.84
2022-09-28T02:52:13.755Z,98668.50
2022-09-28T02:55:01.688Z,98672.91
2022-09-28T02:58:25.274Z,98669.38
2022-09-28T03:01:51.304Z,98670.25
2022-09-28T03:04:47.287Z,98676.34
2022-09-28T03:07:38.638Z,98678.06
2022-09-28T03:10:35.577Z,98678.97
2022-09-28T03:13:04.914Z,98684.22
2022-09-28T03:15:36.714Z,98686.81
2022-09-28T03:18:05.054Z,98678.03
2022-09-28T03:20:33.660Z,98678.03
2022-09-28T03:25:50.233Z,98677.19
2022-09-28T03:28:18.116Z,98674.59
2022-09-28T03:30:45.925Z,98677.22
2022-09-28T03:33:14.092Z,98677.22
2022-09-28T03:35:42.193Z,98674.56
2022-09-28T03:38:10.803Z,98675.44
2022-09-28T03:40:39.674Z,98676.25
2022-09-28T03:43:07.559Z,98669.19
2022-09-28T03:45:35.706Z,98669.22
2022-09-28T03:48:03.814Z,98663.00
2022-09-28T03:50:31.980Z,98657.69
2022-09-28T03:53:04.014Z,98657.69
2022-09-28T03:55:31.809Z,98655.88
2022-09-28T03:57:59.698Z,98653.31
2022-09-28T04:00:27.619Z,98649.88
2022-09-28T04:02:56.527Z,98648.97
2022-09-28T04:05:24.420Z,98654.34
2022-09-28T04:07:56.369Z,98646.50
2022-09-28T04:10:26.047Z,98654.44
2022-09-28T04:12:58.310Z,98656.25
2022-09-28T04:15:26.310Z,98654.50
2022-09-28T04:17:54.172Z,98664.22
2022-09-28T04:20:45.451Z,98671.34
2022-09-28T04:23:15.774Z,98667.81
2022-09-28T04:25:48.710Z,98659.94
2022-09-28T04:28:34.787Z,98667.88
2022-09-28T04:31:02.695Z,98673.13
2022-09-28T04:33:32.004Z,98682.84
2022-09-28T04:36:00.693Z,98682.00
2022-09-28T04:38:48.810Z,98682.03
2022-09-28T04:41:17.805Z,98694.31
2022-09-28T04:43:50.024Z,98702.19
2022-09-28T04:46:18.396Z,98710.06
2022-09-28T04:49:14.975Z,98716.19
2022-09-28T04:51:53.014Z,98719.72
2022-09-28T04:54:20.932Z,98725.91
2022-09-28T04:56:49.241Z,98727.63
2022-09-28T04:59:17.558Z,98724.13
2022-09-28T05:01:47.583Z,98738.19
2022-09-28T05:04:21.264Z,98737.19
2022-09-28T05:07:17.461Z,98734.56
2022-09-28T05:09:45.383Z,98727.53
2022-09-28T05:12:13.275Z,98741.53
2022-09-28T05:14:42.066Z,98741.53
2022-09-28T05:17:10.920Z,98741.53
2022-09-28T05:19:59.152Z,98751.25
2022-09-28T05:22:27.132Z,98756.53
2022-09-28T05:24:58.249Z,98750.44
2022-09-28T05:27:26.314Z,98762.72
2022-09-28T05:30:11.227Z,98767.06
2022-09-28T05:33:18.009Z,98765.38
2022-09-28T05:36:03.201Z,98762.72
2022-09-28T05:38:43.671Z,98766.16
2022-09-28T05:41:11.918Z,98770.63
2022-09-28T05:43:41.068Z,98764.56
2022-09-28T05:46:09.372Z,98768.09
2022-09-28T05:48:41.008Z,98778.59
2022-09-28T05:51:10.262Z,98771.56
2022-09-28T05:53:38.331Z,98772.44
2022-09-28T05:56:06.843Z,98779.44
2022-09-28T05:58:38.684Z,98789.09
2022-09-28T06:01:06.672Z,98791.75
2022-09-28T06:03:35.037Z,98799.63
2022-09-28T06:06:03.304Z,98797.81
2022-09-28T06:08:33.166Z,98792.53
2022-09-28T06:11:36.415Z,98795.09
2022-09-28T06:14:16.120Z,98803.88
2022-09-28T06:16:45.071Z,98797.69
2022-09-28T06:19:13.968Z,98790.59
2022-09-28T06:21:59.169Z,98789.72
2022-09-28T06:24:27.633Z,98788.06
2022-09-28T06:26:55.436Z,98783.66
2022-09-28T06:29:23.622Z,98781.91
2022-09-28T06:31:51.729Z,98767.94
2022-09-28T06:34:19.717Z,98773.13
2022-09-28T06:36:48.757Z,98775.81
2022-09-28T06:39:17.918Z,98791.47
2022-09-28T06:41:45.931Z,98807.94
2022-09-28T06:44:18.838Z,98811.09
2022-09-28T06:47:05.760Z,98810.81
2022-09-28T06:49:57.145Z,98810.63
2022-09-28T06:52:57.326Z,98796.50
2022-09-28T06:55:43.897Z,98798.91
2022-09-28T06:58:15.581Z,98801.38
2022-09-28T07:00:44.280Z,98797.84
2022-09-28T07:03:17.168Z,98808.16
2022-09-28T07:06:00.016Z,98791.59
2022-09-28T07:09:09.612Z,98759.41
2022-09-28T07:12:05.060Z,98748.06
2022-09-28T07:14:47.363Z,98767.44
2022-09-28T07:17:17.443Z,98779.50
2022-09-28T07:19:45.346Z,98787.44
2022-09-28T07:22:18.440Z,98794.47
2022-09-28T07:24:48.950Z,98772.72
2022-09-28T07:27:42.762Z,98786.72
2022-09-28T07:30:35.298Z,98796.34
2022-09-28T07:33:10.795Z,98798.06
2022-09-28T07:35:55.442Z,98797.97
2022-09-28T07:38:29.488Z,98812.91
2022-09-28T07:41:14.403Z,98832.94
2022-09-28T07:43:49.898Z,98832.91
2022-09-28T07:46:18.088Z,98850.38
2022-09-28T07:48:56.206Z,98823.19
2022-09-28T07:51:59.107Z,98835.19
2022-09-28T07:54:31.402Z,98833.31
2022-09-28T07:57:25.492Z,98831.63
2022-09-28T08:00:14.607Z,98825.25
2022-09-28T08:02:44.214Z,98813.00
2022-09-28T08:05:16.038Z,98826.81
2022-09-28T08:07:45.213Z,98843.47
2022-09-28T08:10:14.037Z,98839.00
2022-09-28T08:13:04.778Z,98831.91
2022-09-28T08:15:55.942Z,98811.59
2022-09-28T08:18:32.671Z,98818.72
2022-09-28T08:21:23.000Z,98814.97
2022-09-28T08:23:51.788Z,98808.81
2022-09-28T08:26:19.982Z,98822.66
2022-09-28T08:28:48.360Z,98826.22
2022-09-28T08:31:44.497Z,98796.06
2022-09-28T08:34:32.848Z,98793.03
2022-09-28T08:37:17.153Z,98841.19
2022-09-28T08:40:24.834Z,98838.75
2022-09-28T08:43:48.272Z,98818.22
2022-09-28T08:46:59.759Z,98819.22
2022-09-28T08:49:50.488Z,98846.69
2022-09-28T08:52:32.444Z,98776.94
2022-09-28T08:55:33.445Z,98781.38
2022-09-28T08:58:24.045Z,98805.44
2022-09-28T09:00:54.342Z,98841.75
2022-09-28T09:03:42.473Z,98827.13
2022-09-28T09:06:59.501Z,98778.63
2022-09-28T09:10:00.352Z,98769.25
2022-09-28T09:12:43.400Z,98800.34
2022-09-28T09:15:34.243Z,98760.25
2022-09-28T09:18:25.937Z,98815.97
2022-09-28T09:21:42.209Z,98757.56
2022-09-28T09:24:38.434Z,98731.06
2022-09-28T09:27:27.993Z,98742.88
2022-09-28T09:30:09.423Z,98712.06
2022-09-28T09:33:38.910Z,98711.34
2022-09-28T09:36:38.561Z,98712.97
2022-09-28T09:39:54.220Z,98713.63
2022-09-28T09:43:18.544Z,98713.59
2022-09-28T09:46:19.314Z,98758.09
2022-09-28T09:49:13.682Z,98817.38
2022-09-28T09:51:52.972Z,98771.06
2022-09-28T09:54:35.491Z,98772.16
2022-09-28T09:57:15.315Z,98761.75
2022-09-28T10:00:02.266Z,98697.50
2022-09-28T10:02:46.097Z,98667.16
2022-09-28T10:05:35.273Z,98686.63
2022-09-28T10:08:13.820Z,98676.28
2022-09-28T10:11:09.450Z,98680.66
2022-09-28T10:13:47.359Z,98736.84
2022-09-28T10:16:36.393Z,98749.97
2022-09-28T10:19:13.586Z,98798.06
2022-09-28T10:22:05.199Z,98786.91
2022-09-28T10:24:48.985Z,98779.50
2022-09-28T10:27:29.024Z,98778.47
2022-09-28T10:30:23.419Z,98748.31
2022-09-28T10:32:55.257Z,98680.88
2022-09-28T10:35:25.316Z,98720.41
2022-09-28T10:38:08.026Z,98781.41
2022-09-28T10:40:51.259Z,98709.09
2022-09-28T10:43:29.909Z,98582.72
2022-09-28T10:46:02.021Z,98685.84
2022-09-28T10:48:56.441Z,98672.06
2022-09-28T10:51:56.305Z,98545.41
2022-09-28T10:54:32.692Z,98409.59
2022-09-28T10:57:02.157Z,98529.06
2022-09-28T10:59:41.476Z,98632.53
2022-09-28T11:02:36.817Z,98629.69
2022-09-28T11:05:23.017Z,98579.13
2022-09-28T11:07:55.964Z,98506.53
2022-09-28T11:10:32.690Z,98552.16
2022-09-28T11:13:10.444Z,98624.72
2022-09-28T11:15:44.255Z,98586.75
2022-09-28T11:18:32.470Z,98617.16
2022-09-28T11:21:22.875Z,98552.31
2022-09-28T11:24:07.539Z,98575.47
2022-09-28T11:26:46.923Z,98578.13
2022-09-28T11:29:46.998Z,98542.56
2022-09-28T11:32:22.039Z,98447.56
2022-09-28T11:35:35.266Z,98429.06
2022-09-28T11:38:27.195Z,98463.69
2022-09-28T11:41:53.894Z,98484.72
2022-09-28T11:44:46.570Z,98392.34
2022-09-28T11:47:47.773Z,98373.34
2022-09-28T11:51:04.499Z,98511.53
2022-09-28T11:53:46.020Z,98528.00
2022-09-28T11:56:31.925Z,98536.63
2022-09-28T11:59:16.131Z,98406.00
2022-09-28T12:02:00.595Z,98464.06
2022-09-28T12:04:55.944Z,98376.31
2022-09-28T12:07:32.869Z,98426.22
2022-09-28T12:10:36.236Z,98324.25
2022-09-28T12:13:11.957Z,98436.16
2022-09-28T12:16:37.560Z,98393.09
2022-09-28T12:19:11.003Z,98390.84
2022-09-28T12:21:59.876Z,98189.75
2022-09-28T12:24:39.492Z,98217.84
2022-09-28T12:27:10.323Z,98218.38
2022-09-28T12:29:53.628Z,98171.75
2022-09-28T12:32:44.965Z,98285.19
2022-09-28T12:35:18.577Z,98254.41
2022-09-28T12:38:12.871Z,98165.00
2022-09-28T12:41:02.352Z,98104.19
2022-09-28T12:43:54.705Z,98029.84
2022-09-28T12:46:56.079Z,98054.78
2022-09-28T12:50:20.459Z,98035.44
2022-09-28T12:52:31.512Z,98087.63
2022-09-28T12:55:13.061Z,98091.38
2022-09-28T12:57:48.702Z,98133.63
2022-09-28T13:00:22.981Z,98159.59
2022-09-28T13:03:20.035Z,98160.47
2022-09-28T13:05:50.982Z,98197.13
2022-09-28T13:08:41.755Z,98291.47
2022-09-28T13:11:36.647Z,98117.59
2022-09-28T13:14:29.118Z,98117.41
2022-09-28T13:17:40.092Z,98134.59
2022-09-28T13:20:18.103Z,98235.22
2022-09-28T13:23:16.592Z,98193.13
2022-09-28T13:25:53.970Z,98216.56
2022-09-28T13:28:27.317Z,98120.13
2022-09-28T13:33:36.978Z,98100.53
2022-09-28T13:36:30.863Z,98011.69
2022-09-28T13:39:00.813Z,97904.91
2022-09-28T13:41:35.616Z,97928.41
2022-09-28T13:44:03.581Z,98060.72
2022-09-28T13:46:56.373Z,98118.38
2022-09-28T13:49:45.299Z,98017.81
2022-09-28T13:52:55.320Z,98086.44
2022-09-28T13:55:35.095Z,98092.88
2022-09-28T13:58:16.862Z,98147.75
2022-09-28T14:00:56.371Z,98141.22
2022-09-28T14:03:43.881Z,98077.22
2022-09-28T14:06:28.891Z,98122.91
2022-09-28T14:09:24.385Z,98056.47
2022-09-28T14:11:59.353Z,97971.69
2022-09-28T14:14:52.823Z,97969.34
2022-09-28T14:17:23.593Z,98010.19
2022-09-28T14:20:00.189Z,98010.47
2022-09-28T14:23:15.108Z,97915.53
2022-09-28T14:26:25.241Z,97923.53
2022-09-28T14:29:28.444Z,97941.44
2022-09-28T14:32:11.282Z,97916.25
2022-09-28T14:34:47.435Z,97906.81
2022-09-28T14:38:00.984Z,97927.47
2022-09-28T14:41:11.039Z,97941.59
2022-09-28T14:43:44.617Z,97945.44
2022-09-28T14:46:15.751Z,97903.56
2022-09-28T14:48:48.815Z,97878.94
2022-09-28T14:51:30.264Z,97938.06
2022-09-28T14:54:12.681Z,97953.91
2022-09-28T14:56:52.157Z,97936.81
2022-09-28T14:59:34.549Z,97952.81
2022-09-28T15:02:15.434Z,97934.56
2022-09-28T15:05:10.058Z,97870.66
2022-09-28T15:07:50.649Z,97910.28
2022-09-28T15:10:48.811Z,97953.13
2022-09-28T15:13:26.211Z,97890.69
2022-09-28T15:16:08.961Z,97913.03
2022-09-28T15:19:05.281Z,97996.44
2022-09-28T15:21:42.979Z,97940.91
2022-09-28T15:24:36.804Z,97907.75
2022-09-28T15:27:20.026Z,97868.06
2022-09-28T15:30:17.618Z,97932.03
2022-09-28T15:32:55.211Z,97897.41
2022-09-28T15:35:35.184Z,97927.81
2022-09-28T15:38:12.035Z,97894.38
2022-09-28T15:40:41.424Z,97856.94
2022-09-28T15:43:33.141Z,97911.38
2022-09-28T15:46:22.950Z,97904.38
2022-09-28T15:48:59.628Z,97938.53
2022-09-28T15:51:31.614Z,97919.88
2022-09-28T15:54:19.416Z,97948.00
2022-09-28T15:57:02.889Z,97882.22
2022-09-28T15:59:38.292Z,97967.38
2022-09-28T16:02:17.502Z,97986.63
2022-09-28T16:04:48.200Z,97998.53
2022-09-28T16:07:18.799Z,97888.75
2022-09-28T16:10:14.039Z,97959.28
2022-09-28T16:12:53.657Z,97957.16
2022-09-28T16:15:38.688Z,98005.75
2022-09-28T16:18:25.202Z,97976.41
2022-09-28T16:21:01.899Z,97976.28
2022-09-28T16:26:40.645Z,98004.06
2022-09-28T16:29:25.799Z,97915.28
2022-09-28T16:31:54.061Z,97950.72
2022-09-28T16:34:26.479Z,97971.13
2022-09-28T16:36:55.099Z,97997.88
2022-09-28T16:39:23.314Z,97992.72
2022-09-28T16:42:01.788Z,97973.72
2022-09-28T16:44:31.889Z,98024.09
2022-09-28T16:47:00.857Z,98014.13
2022-09-28T16:49:31.751Z,98068.88
2022-09-28T16:52:01.314Z,98049.84
2022-09-28T16:54:48.254Z,98102.75
2022-09-28T16:57:16.796Z,98103.38
2022-09-28T16:59:44.928Z,98114.34
2022-09-28T17:05:15.807Z,98161.41
2022-09-28T17:08:00.366Z,98190.53
2022-09-28T17:11:02.639Z,98176.78
2022-09-28T17:13:34.028Z,98204.56
2022-09-28T17:16:10.558Z,98207.03
2022-09-28T17:18:40.013Z,98220.25
2022-09-28T17:21:15.764Z,98187.38
2022-09-28T17:23:48.817Z,98136.19
2022-09-28T17:26:27.437Z,98124.28
2022-09-28T17:29:02.385Z,98112.88
2022-09-28T17:31:34.360Z,98099.47
2022-09-28T17:34:05.236Z,98095.50
2022-09-28T17:36:44.982Z,98115.56
2022-09-28T17:39:16.713Z,98137.63
2022-09-28T17:41:45.368Z,98156.22
2022-09-28T17:44:16.762Z,98156.47
2022-09-28T17:46:47.612Z,98174.06
2022-09-28T17:49:16.390Z,98175.03
2022-09-28T17:51:44.557Z,98163.91
2022-09-28T17:54:20.858Z,98187.00
2022-09-28T17:56:49.108Z,98205.03
2022-09-28T17:59:18.518Z,98243.25
2022-09-28T18:01:48.370Z,98235.56
2022-09-28T18:04:39.646Z,98198.81
2022-09-28T18:07:05.266Z,98118.41
2022-09-28T18:09:33.314Z,98017.59
2022-09-28T18:12:04.195Z,97948.53
2022-09-28T18:14:32.509Z,97899.72
2022-09-28T18:17:00.657Z,97857.47
2022-09-28T18:19:32.178Z,97861.34
2022-09-28T18:22:01.560Z,97855.97
2022-09-28T18:24:30.244Z,97845.31
2022-09-28T18:27:00.637Z,97872.94
2022-09-28T18:29:32.937Z,97832.13
2022-09-28T18:32:02.148Z,97847.78
2022-09-28T18:34:30.437Z,97877.69
2022-09-28T18:36:58.908Z,97931.78
2022-09-28T18:39:27.102Z,97912.03
2022-09-28T18:41:55.345Z,97885.16
2022-09-28T18:44:26.785Z,97927.06
2022-09-28T18:46:54.993Z,97970.28
2022-09-28T18:49:23.502Z,98040.16
2022-09-28T18:51:51.666Z,98073.69
2022-09-28T18:54:30.069Z,98118.19
2022-09-28T18:56:59.033Z,98178.25
2022-09-28T18:59:26.797Z,98234.66
2022-09-28T19:01:55.174Z,98250.63
2022-09-28T19:04:23.666Z,98292.38
2022-09-28T19:06:52.486Z,98329.38
2022-09-28T19:09:22.965Z,98347.91
2022-09-28T19:11:51.311Z,98369.94
2022-09-28T19:14:19.569Z,98385.16
2022-09-28T19:16:47.953Z,98397.53
2022-09-28T19:19:19.284Z,98407.25
2022-09-28T19:21:47.949Z,98402.06
2022-09-28T19:24:18.487Z,98417.09
2022-09-28T19:26:46.946Z,98432.03
2022-09-28T19:29:15.528Z,98434.91
2022-09-28T19:31:43.885Z,98443.47
2022-09-28T19:34:14.164Z,98459.31
2022-09-28T19:36:44.647Z,98479.75
2022-09-28T19:42:01.365Z,98490.03
2022-09-28T19:44:31.334Z,98498.31
2022-09-28T19:46:59.525Z,98508.75
2022-09-28T19:49:29.277Z,98510.56
2022-09-28T19:52:14.705Z,98515.88
2022-09-28T19:54:56.835Z,98530.84
2022-09-28T19:57:29.244Z,98545.22
2022-09-28T20:00:02.014Z,98542.44
2022-09-28T20:02:34.528Z,98548.81
2022-09-28T20:05:02.963Z,98551.28
2022-09-28T20:07:33.089Z,98556.81
2022-09-28T20:10:01.293Z,98555.13
2022-09-28T20:12:29.354Z,98561.13
2022-09-28T20:14:57.932Z,98551.78
2022-09-28T20:17:26.078Z,98563.19
2022-09-28T20:19:53.862Z,98575.59
2022-09-28T20:22:22.087Z,98570.66
2022-09-28T20:24:50.130Z,98576.75
2022-09-28T20:27:18.265Z,98583.03
2022-09-28T20:29:48.225Z,98582.16
2022-09-28T20:32:16.354Z,98583.13
2022-09-28T20:34:44.506Z,98588.56
2022-09-28T20:37:14.002Z,98581.81
2022-09-28T20:39:44.986Z,98590.66
2022-09-28T20:42:15.597Z,98601.13
2022-09-28T20:44:44.053Z,98596.81
2022-09-28T20:47:12.189Z,98597.75
2022-09-28T20:49:40.252Z,98599.53
2022-09-28T20:52:08.389Z,98610.22
2022-09-28T20:54:38.055Z,98613.75
2022-09-28T20:57:18.384Z,98617.44
2022-09-28T20:59:52.147Z,98614.06
2022-09-28T21:02:22.980Z,98613.16
2022-09-28T21:04:51.087Z,98608.97
2022-09-28T21:07:19.169Z,98610.78
2022-09-28T21:09:47.261Z,98623.06
2022-09-28T21:12:15.762Z,98624.97
2022-09-28T21:14:43.844Z,98638.19
2022-09-28T21:17:12.093Z,98644.47
2022-09-28T21:19:40.168Z,98654.09
2022-09-28T21:22:08.294Z,98652.38
2022-09-28T21:24:37.107Z,98647.94
2022-09-28T21:27:05.165Z,98645.34
2022-09-28T21:29:33.345Z,98647.19
2022-09-28T21:32:01.331Z,98662.00
2022-09-28T21:34:29.659Z,98661.09
2022-09-28T21:36:57.753Z,98659.25
2022-09-28T21:39:26.141Z,98640.69
2022-09-28T21:41:54.196Z,98647.78
2022-09-28T21:44:22.254Z,98647.13
2022-09-28T21:46:53.373Z,98647.16
2022-09-28T21:49:21.448Z,98651.63
2022-09-28T21:51:49.468Z,98664.97
2022-09-28T21:54:17.588Z,98653.66
2022-09-28T21:56:45.622Z,98661.75
2022-09-28T21:59:13.738Z,98673.22
2022-09-28T22:01:42.685Z,98677.72
2022-09-28T22:04:11.219Z,98676.72
2022-09-28T22:06:39.837Z,98683.75
2022-09-28T22:09:08.064Z,98686.31
2022-09-28T22:11:36.234Z,98683.84
2022-09-28T22:14:04.625Z,98689.97
2022-09-28T22:16:32.893Z,98699.66
2022-09-28T22:19:01.125Z,98687.69
2022-09-28T22:21:34.702Z,98692.09
2022-09-28T22:24:06.733Z,98711.44
2022-09-28T22:26:37.037Z,98712.34
2022-09-28T22:29:08.696Z,98722.84
2022-09-28T22:31:40.362Z,98717.72
2022-09-28T22:34:09.078Z,98725.63
2022-09-28T22:36:37.525Z,98737.06
2022-09-28T22:39:06.161Z,98739.66
2022-09-28T22:41:34.287Z,98739.69
2022-09-28T22:44:02.149Z,98751.16
2022-09-28T22:46:32.595Z,98756.31
2022-09-28T22:49:01.132Z,98756.44
2022-09-28T22:51:30.340Z,98754.69
2022-09-28T22:53:58.916Z,98757.31
2022-09-28T22:56:27.026Z,98766.94
2022-09-28T22:58:55.080Z,98768.72
2022-09-28T23:01:29.743Z,98763.53
2022-09-28T23:03:59.430Z,98772.31
2022-09-28T23:06:30.413Z,98773.22
2022-09-28T23:08:58.879Z,98771.50
2022-09-28T23:11:27.777Z,98782.00
2022-09-28T23:13:58.553Z,98787.22
2022-09-28T23:16:27.589Z,98799.47
2022-09-28T23:18:56.187Z,98789.88
2022-09-28T23:21:27.017Z,98805.63
2022-09-28T23:24:03.220Z,98807.41
2022-09-28T23:26:33.260Z,98818.81
2022-09-28T23:29:01.542Z,98820.56
2022-09-28T23:31:32.318Z,98826.75
2022-09-28T23:34:03.227Z,98830.25
2022-09-28T23:36:31.701Z,98833.75
2022-09-28T23:38:59.837Z,98837.28
2022-09-28T23:41:28.189Z,98842.53
2022-09-28T23:43:56.445Z,98848.69
2022-09-28T23:46:24.638Z,98847.81
2022-09-28T23:48:52.875Z,98853.94
2022-09-28T23:51:20.936Z,98853.09
2022-09-28T23:53:49.085Z,98857.47
2022-09-28T23:56:17.235Z,98855.72
2022-09-28T23:58:45.464Z,98848.72
